Lancaster, Illinois
Current Conditions -  °F | °C
As of 1:15 AM on Thursday 18 Dec 2014 (Local Time) from KAJG Reporting Station
Overcast Overcast  
Wind Chill: -1°   Ceiling: 1100
Heat Index: -1°   Visibility: 10mi
Dew Point: -5°   Wind: 3mph
Humidity: 75%   Direction: 10°N
Pressure: 30.33"   Gusts: NA
Location:  38.55°N, 87.87°W
Report Text: KAJG 180715Z AUTO 01003KT 10SM OVC011 M01/M05 A3033 RMK AO2
Loading
Personal Weather Stations






























Interactive Weather Map New forecast layout! Learn more

10-Day Weather Forecast

Advertisements
Track Severe Weather on mobile